Winston-Salem, NC (27106)

03:01 EDT le 26 septembre 2016 (GMT -0400)
Sunny Dell Lakes | | Change Station

Alt. 774 ft 36.14 °N, 80.33 °W | Updated 2 seconds ago

Overcast
Couvert
70.1 ° F
Paraît 70.1 ° F
N
0.0
Vent Variable Vent de ENE
Gusts 0.0 mph

Aujourd'hui
Haut(e) -- | Bas -- ° F
--% Risque de précip.
Hier
Haut(e) -- | Bas -- ° F
Precip. -- pouce
Pression 30.12 pouce
Visibilité 6.0 Miles terrestres
Nuages Couvert 700 ft
Point de rosée 68 ° F
Humidité 94%
Précipitations 0.00 pouce
Profondeur de la couche neigeuse Non disponible.
7:12 AM 7:11 PM
Lune descendante, 21% visible
METAR KINT 260654Z AUTO 14004KT 6SM BR OVC007 21/18 A3015 RMK AO2 SLP199 T02060183
Pression 30.12 pouce
Visibilité 6.0 Miles terrestres
Nuages Couvert 700 ft
Point de rosée 68 ° F
Humidité 94%
Précipitations 0.00 pouce
Profondeur de la couche neigeuse Non disponible.
7:12 AM 7:11 PM
Lune descendante, 21% visible
METAR KINT 260654Z AUTO 14004KT 6SM BR OVC007 21/18 A3015 RMK AO2 SLP199 T02060183

10-Day Weather Forecast

Almanac

Astronomie

Sep. 26, 2016 Lever Coucher
Temps réel
Crépuscule civil
Crépuscule nautique
Crépuscule astronomique
Lune
Durée de lumière visible
Longueur du jour
Tomorrow will be .
, % of the Moon is Illuminated

Extrêmes aujourd'hui

State Highs State Lows

Community

WunderPhotos

Upload Photos

1,941,853 Photos téléchargées !

WunderBlog® & News

Nearby

Qualité de l'air

  Qualité de l'air Indice de la qualité de l'air Polluant
Not available.

Épaisseur de neige

Station Depth Altitude

Activité sismique

Ville Distance Mag. Time & Date
Minimum magnitude displayed is 2.5.

Températures des eaux côtières

Lieu Température

Stations

Stations météo à proximité

Emplacement de la station Température Refroidissement éolien Point de rosée Humidité Vent Precip. Alt. Mise à jour Type
                   

Watches & Warnings

There are currently no watches in effect.